Quelimane, Mozambique
Current Conditions -  °F | °C
As of 3:00 AM on Friday 19 Dec 2014 (Local Time) from FQQL Reporting Station
Scattered Clouds Scattered Clouds  
Wind Chill: 75°   Ceiling: Unl
Heat Index: 75°   Visibility: 6mi
Dew Point: 73°   Wind: 5mph
Humidity: 94%   Direction: 280°W
Pressure: 29.8"   Gusts: NA
Location:  17.88°S, 36.89°E
Report Text: FQQL 190100Z 28004KT 9999 SCT020 24/23 Q1009
Loading
Personal Weather Stations






























Interactive Weather Map New forecast layout! Learn more

10-Day Weather Forecast

Advertisements
Track Severe Weather on mobile